sensor_id;sensor_type;location;lat;lon;timestamp;pressure;altitude;pressure_sealevel;temperature;humidity
17781;BME280;8498;52.516;13.790;2023-03-14T00:01:20;98738.00;;;13.83;78.85
17781;BME280;8498;52.516;13.790;2023-03-14T00:06:42;98729.72;;;13.70;79.37
17781;BME280;8498;52.516;13.790;2023-03-14T00:12:05;98736.38;;;13.66;79.55
17781;BME280;8498;52.516;13.790;2023-03-14T00:17:29;98737.38;;;13.65;79.58
17781;BME280;8498;52.516;13.790;2023-03-14T00:22:52;98735.41;;;13.59;80.00
17781;BME280;8498;52.516;13.790;2023-03-14T00:28:14;98704.25;;;13.59;80.15
17781;BME280;8498;52.516;13.790;2023-03-14T00:33:37;98681.44;;;13.49;81.29
17781;BME280;8498;52.516;13.790;2023-03-14T00:38:59;98678.56;;;13.50;81.43
17781;BME280;8498;52.516;13.790;2023-03-14T00:44:21;98677.28;;;13.38;82.50
17781;BME280;8498;52.516;13.790;2023-03-14T00:49:44;98662.47;;;13.36;83.12
17781;BME280;8498;52.516;13.790;2023-03-14T00:55:07;98670.50;;;13.28;83.26
17781;BME280;8498;52.516;13.790;2023-03-14T01:00:29;98664.69;;;13.16;84.47
17781;BME280;8498;52.516;13.790;2023-03-14T01:05:52;98659.81;;;13.11;84.75
17781;BME280;8498;52.516;13.790;2023-03-14T01:11:20;98645.19;;;13.07;85.11
17781;BME280;8498;52.516;13.790;2023-03-14T01:16:42;98629.19;;;13.07;85.21
17781;BME280;8498;52.516;13.790;2023-03-14T01:22:05;98638.00;;;13.00;85.58
17781;BME280;8498;52.516;13.790;2023-03-14T01:27:27;98655.84;;;12.99;85.60
17781;BME280;8498;52.516;13.790;2023-03-14T01:32:52;98709.97;;;12.92;86.42
17781;BME280;8498;52.516;13.790;2023-03-14T01:38:15;98699.81;;;13.03;86.34
17781;BME280;8498;52.516;13.790;2023-03-14T01:43:38;98702.81;;;13.00;86.52
17781;BME280;8498;52.516;13.790;2023-03-14T01:49:04;98709.16;;;13.07;86.64
17781;BME280;8498;52.516;13.790;2023-03-14T02:00:02;98725.31;;;13.14;86.95
17781;BME280;8498;52.516;13.790;2023-03-14T02:05:35;98719.47;;;13.10;87.55
17781;BME280;8498;52.516;13.790;2023-03-14T02:11:05;98713.13;;;13.03;87.78
17781;BME280;8498;52.516;13.790;2023-03-14T02:16:45;98692.50;;;13.05;87.52
17781;BME280;8498;52.516;13.790;2023-03-14T02:22:38;98679.81;;;12.99;87.86
17781;BME280;8498;52.516;13.790;2023-03-14T02:28:03;98669.34;;;12.98;87.58
17781;BME280;8498;52.516;13.790;2023-03-14T02:33:27;98660.84;;;12.78;88.25
17781;BME280;8498;52.516;13.790;2023-03-14T02:39:02;98657.84;;;12.89;87.85
17781;BME280;8498;52.516;13.790;2023-03-14T02:44:28;98653.38;;;12.81;88.26
17781;BME280;8498;52.516;13.790;2023-03-14T02:49:53;98647.19;;;12.89;87.99
17781;BME280;8498;52.516;13.790;2023-03-14T02:55:22;98646.56;;;12.87;88.15
17781;BME280;8498;52.516;13.790;2023-03-14T03:00:47;98641.88;;;12.81;88.11
17781;BME280;8498;52.516;13.790;2023-03-14T03:06:11;98627.56;;;12.74;88.48
17781;BME280;8498;52.516;13.790;2023-03-14T03:11:34;98612.91;;;12.78;88.10
17781;BME280;8498;52.516;13.790;2023-03-14T03:16:59;98599.44;;;12.71;88.19
17781;BME280;8498;52.516;13.790;2023-03-14T03:22:22;98585.59;;;12.68;88.01
17781;BME280;8498;52.516;13.790;2023-03-14T03:27:44;98566.97;;;12.60;88.19
17781;BME280;8498;52.516;13.790;2023-03-14T03:33:12;98544.38;;;12.56;88.41
17781;BME280;8498;52.516;13.790;2023-03-14T03:38:37;98568.50;;;12.54;88.21
17781;BME280;8498;52.516;13.790;2023-03-14T03:44:00;98573.31;;;12.50;88.22
17781;BME280;8498;52.516;13.790;2023-03-14T03:49:23;98584.31;;;12.56;87.62
17781;BME280;8498;52.516;13.790;2023-03-14T03:54:45;98588.63;;;12.57;87.30
17781;BME280;8498;52.516;13.790;2023-03-14T04:00:11;98581.97;;;12.53;87.00
17781;BME280;8498;52.516;13.790;2023-03-14T04:05:37;98579.63;;;12.58;86.76
17781;BME280;8498;52.516;13.790;2023-03-14T04:11:03;98578.97;;;12.64;86.04
17781;BME280;8498;52.516;13.790;2023-03-14T04:17:01;98590.63;;;12.55;86.11
17781;BME280;8498;52.516;13.790;2023-03-14T04:22:24;98579.63;;;12.49;85.99
17781;BME280;8498;52.516;13.790;2023-03-14T04:27:48;98575.31;;;12.48;85.67
17781;BME280;8498;52.516;13.790;2023-03-14T04:33:18;98560.19;;;12.41;85.70
17781;BME280;8498;52.516;13.790;2023-03-14T04:38:47;98548.19;;;12.53;84.79
17781;BME280;8498;52.516;13.790;2023-03-14T04:44:13;98531.38;;;12.53;84.62
17781;BME280;8498;52.516;13.790;2023-03-14T04:49:35;98530.91;;;12.41;84.57
17781;BME280;8498;52.516;13.790;2023-03-14T04:55:00;98525.06;;;12.54;83.82
17781;BME280;8498;52.516;13.790;2023-03-14T05:00:23;98520.06;;;12.50;83.50
17781;BME280;8498;52.516;13.790;2023-03-14T05:06:06;98508.06;;;12.46;83.41
17781;BME280;8498;52.516;13.790;2023-03-14T05:11:46;98503.47;;;12.24;83.63
17781;BME280;8498;52.516;13.790;2023-03-14T05:17:27;98501.13;;;12.29;83.48
17781;BME280;8498;52.516;13.790;2023-03-14T05:23:12;98507.78;;;12.33;82.75
17781;BME280;8498;52.516;13.790;2023-03-14T05:28:52;98498.28;;;12.31;82.18
17781;BME280;8498;52.516;13.790;2023-03-14T05:34:38;98481.50;;;12.30;81.86
17781;BME280;8498;52.516;13.790;2023-03-14T05:40:23;98481.34;;;12.24;81.96
17781;BME280;8498;52.516;13.790;2023-03-14T05:45:55;98483.81;;;12.33;81.15
17781;BME280;8498;52.516;13.790;2023-03-14T05:51:24;98491.47;;;12.28;80.88
17781;BME280;8498;52.516;13.790;2023-03-14T05:57:14;98496.78;;;12.36;80.13
17781;BME280;8498;52.516;13.790;2023-03-14T06:02:59;98495.38;;;12.73;79.22
17781;BME280;8498;52.516;13.790;2023-03-14T06:08:27;98485.75;;;12.64;78.00
17781;BME280;8498;52.516;13.790;2023-03-14T06:13:50;98493.75;;;12.47;78.19
17781;BME280;8498;52.516;13.790;2023-03-14T06:19:13;98502.09;;;12.53;77.90
17781;BME280;8498;52.516;13.790;2023-03-14T06:24:38;98503.09;;;12.52;77.71
17781;BME280;8498;52.516;13.790;2023-03-14T06:30:01;98505.88;;;12.58;77.19
17781;BME280;8498;52.516;13.790;2023-03-14T06:35:25;98506.25;;;12.55;77.20
17781;BME280;8498;52.516;13.790;2023-03-14T06:40:48;98509.19;;;12.68;76.81
17781;BME280;8498;52.516;13.790;2023-03-14T06:46:21;98513.34;;;12.71;76.28
17781;BME280;8498;52.516;13.790;2023-03-14T06:51:45;98512.84;;;12.75;76.08
17781;BME280;8498;52.516;13.790;2023-03-14T06:57:08;98512.50;;;12.78;75.91
17781;BME280;8498;52.516;13.790;2023-03-14T07:02:31;98515.53;;;12.75;75.51
17781;BME280;8498;52.516;13.790;2023-03-14T07:08:13;98535.97;;;12.83;75.39
17781;BME280;8498;52.516;13.790;2023-03-14T07:13:40;98562.75;;;12.90;74.89
17781;BME280;8498;52.516;13.790;2023-03-14T07:19:04;98553.72;;;12.99;74.05
17781;BME280;8498;52.516;13.790;2023-03-14T07:24:26;98552.53;;;13.09;73.88
17781;BME280;8498;52.516;13.790;2023-03-14T07:29:49;98558.06;;;13.16;74.03
17781;BME280;8498;52.516;13.790;2023-03-14T07:35:13;98562.72;;;13.06;74.09
17781;BME280;8498;52.516;13.790;2023-03-14T07:40:36;98557.72;;;13.03;74.09
17781;BME280;8498;52.516;13.790;2023-03-14T07:46:01;98565.84;;;13.09;74.27
17781;BME280;8498;52.516;13.790;2023-03-14T07:51:24;98557.53;;;13.12;73.61
17781;BME280;8498;52.516;13.790;2023-03-14T07:56:46;98564.69;;;13.20;73.27
17781;BME280;8498;52.516;13.790;2023-03-14T08:02:12;98560.19;;;13.20;73.33
17781;BME280;8498;52.516;13.790;2023-03-14T08:07:35;98558.53;;;13.19;72.98
17781;BME280;8498;52.516;13.790;2023-03-14T08:12:58;98561.47;;;13.33;72.98
17781;BME280;8498;52.516;13.790;2023-03-14T08:18:21;98554.59;;;13.46;72.54
17781;BME280;8498;52.516;13.790;2023-03-14T08:23:44;98549.69;;;13.58;71.82
17781;BME280;8498;52.516;13.790;2023-03-14T08:29:06;98566.31;;;13.60;71.26
17781;BME280;8498;52.516;13.790;2023-03-14T08:34:30;98548.22;;;13.78;70.93
17781;BME280;8498;52.516;13.790;2023-03-14T08:39:52;98555.03;;;13.81;69.96
17781;BME280;8498;52.516;13.790;2023-03-14T08:45:16;98558.47;;;14.35;70.57
17781;BME280;8498;52.516;13.790;2023-03-14T08:50:39;98546.63;;;14.15;69.13
17781;BME280;8498;52.516;13.790;2023-03-14T08:56:01;98566.38;;;14.06;68.97
17781;BME280;8498;52.516;13.790;2023-03-14T09:01:24;98555.94;;;14.19;69.08
17781;BME280;8498;52.516;13.790;2023-03-14T09:06:47;98559.63;;;14.18;69.76
17781;BME280;8498;52.516;13.790;2023-03-14T09:12:10;98551.31;;;14.13;68.85
17781;BME280;8498;52.516;13.790;2023-03-14T09:17:32;98553.38;;;14.25;69.03
17781;BME280;8498;52.516;13.790;2023-03-14T09:22:55;98566.47;;;14.35;67.98
17781;BME280;8498;52.516;13.790;2023-03-14T09:28:18;98560.19;;;14.28;68.13
17781;BME280;8498;52.516;13.790;2023-03-14T09:33:40;98559.47;;;14.57;66.85
17781;BME280;8498;52.516;13.790;2023-03-14T09:39:03;98545.13;;;14.87;66.49
17781;BME280;8498;52.516;13.790;2023-03-14T09:44:32;98559.69;;;14.70;65.73
17781;BME280;8498;52.516;13.790;2023-03-14T09:49:55;98549.84;;;15.00;64.86
17781;BME280;8498;52.516;13.790;2023-03-14T09:55:20;98560.22;;;15.39;62.58
17781;BME280;8498;52.516;13.790;2023-03-14T10:00:44;98549.78;;;15.59;61.05
17781;BME280;8498;52.516;13.790;2023-03-14T10:06:14;98552.28;;;15.96;60.40
17781;BME280;8498;52.516;13.790;2023-03-14T10:11:36;98537.03;;;15.75;59.24
17781;BME280;8498;52.516;13.790;2023-03-14T10:17:19;98558.38;;;15.39;61.17
17781;BME280;8498;52.516;13.790;2023-03-14T10:22:42;98564.06;;;15.15;61.41
17781;BME280;8498;52.516;13.790;2023-03-14T10:28:05;98555.19;;;15.00;60.88
17781;BME280;8498;52.516;13.790;2023-03-14T10:33:30;98553.31;;;14.86;61.71
17781;BME280;8498;52.516;13.790;2023-03-14T10:44:39;98557.00;;;14.85;61.44
17781;BME280;8498;52.516;13.790;2023-03-14T10:50:34;98555.75;;;14.81;62.14
17781;BME280;8498;52.516;13.790;2023-03-14T10:55:57;98557.00;;;14.85;60.45
17781;BME280;8498;52.516;13.790;2023-03-14T11:07:13;98559.41;;;14.80;59.64
17781;BME280;8498;52.516;13.790;2023-03-14T11:29:38;98562.81;;;14.59;63.33
17781;BME280;8498;52.516;13.790;2023-03-14T11:35:08;98567.41;;;14.65;64.23
17781;BME280;8498;52.516;13.790;2023-03-14T11:40:37;98574.59;;;14.64;64.36
17781;BME280;8498;52.516;13.790;2023-03-14T11:46:09;98553.88;;;14.66;65.12
17781;BME280;8498;52.516;13.790;2023-03-14T11:51:36;98560.66;;;14.54;68.09
17781;BME280;8498;52.516;13.790;2023-03-14T11:57:05;98563.88;;;14.50;66.25
17781;BME280;8498;52.516;13.790;2023-03-14T12:13:56;98536.66;;;14.84;64.24
17781;BME280;8498;52.516;13.790;2023-03-14T12:24:46;98550.00;;;14.09;77.40
17781;BME280;8498;52.516;13.790;2023-03-14T12:30:18;98564.00;;;13.88;79.55
17781;BME280;8498;52.516;13.790;2023-03-14T12:35:49;98551.28;;;13.67;81.41
17781;BME280;8498;52.516;13.790;2023-03-14T12:46:50;98535.06;;;13.77;84.23
17781;BME280;8498;52.516;13.790;2023-03-14T12:52:20;98519.47;;;13.88;84.70
17781;BME280;8498;52.516;13.790;2023-03-14T13:03:47;98514.97;;;14.26;80.37
17781;BME280;8498;52.516;13.790;2023-03-14T13:14:57;98510.56;;;14.71;77.94
17781;BME280;8498;52.516;13.790;2023-03-14T13:20:30;98506.16;;;14.63;74.51
17781;BME280;8498;52.516;13.790;2023-03-14T13:25:54;98501.16;;;14.60;71.92
17781;BME280;8498;52.516;13.790;2023-03-14T13:31:24;98498.19;;;14.55;71.26
17781;BME280;8498;52.516;13.790;2023-03-14T13:36:47;98500.25;;;14.53;71.92
17781;BME280;8498;52.516;13.790;2023-03-14T13:42:14;98473.31;;;14.55;72.69
17781;BME280;8498;52.516;13.790;2023-03-14T13:47:38;98464.13;;;14.57;71.45
17781;BME280;8498;52.516;13.790;2023-03-14T13:53:01;98480.25;;;14.64;69.75
17781;BME280;8498;52.516;13.790;2023-03-14T13:58:29;98496.28;;;14.64;70.02
17781;BME280;8498;52.516;13.790;2023-03-14T14:03:53;98502.38;;;14.87;70.13
17781;BME280;8498;52.516;13.790;2023-03-14T14:09:20;98490.69;;;15.96;67.84
17781;BME280;8498;52.516;13.790;2023-03-14T14:20:19;98481.28;;;16.28;66.04
17781;BME280;8498;52.516;13.790;2023-03-14T14:25:43;98468.72;;;16.57;65.40
17781;BME280;8498;52.516;13.790;2023-03-14T14:31:21;98469.53;;;16.57;64.79
17781;BME280;8498;52.516;13.790;2023-03-14T14:36:45;98461.44;;;16.78;64.21
17781;BME280;8498;52.516;13.790;2023-03-14T14:42:15;98462.06;;;16.52;65.25
17781;BME280;8498;52.516;13.790;2023-03-14T14:47:52;98457.78;;;16.02;68.37
17781;BME280;8498;52.516;13.790;2023-03-14T14:53:30;98462.91;;;15.97;70.13
17781;BME280;8498;52.516;13.790;2023-03-14T14:59:03;98467.31;;;15.84;66.68
17781;BME280;8498;52.516;13.790;2023-03-14T15:04:30;98458.19;;;15.78;65.15
17781;BME280;8498;52.516;13.790;2023-03-14T15:09:53;98456.84;;;15.31;66.95
17781;BME280;8498;52.516;13.790;2023-03-14T15:15:16;98439.75;;;15.11;67.84
17781;BME280;8498;52.516;13.790;2023-03-14T15:20:39;98445.31;;;14.95;68.00
17781;BME280;8498;52.516;13.790;2023-03-14T15:26:01;98458.22;;;14.77;69.02
17781;BME280;8498;52.516;13.790;2023-03-14T15:31:25;98452.59;;;14.57;69.82
17781;BME280;8498;52.516;13.790;2023-03-14T15:36:47;98458.31;;;14.39;70.47
17781;BME280;8498;52.516;13.790;2023-03-14T15:42:10;98487.69;;;14.39;71.17
17781;BME280;8498;52.516;13.790;2023-03-14T15:47:33;98663.31;;;13.75;71.65
17781;BME280;8498;52.516;13.790;2023-03-14T15:52:56;98675.25;;;10.21;82.11
17781;BME280;8498;52.516;13.790;2023-03-14T15:58:20;98694.56;;;8.75;86.96
17781;BME280;8498;52.516;13.790;2023-03-14T16:03:46;98770.19;;;7.99;89.12
17781;BME280;8498;52.516;13.790;2023-03-14T16:09:08;98795.75;;;7.89;89.53
17781;BME280;8498;52.516;13.790;2023-03-14T16:14:31;98821.13;;;7.41;89.45
17781;BME280;8498;52.516;13.790;2023-03-14T16:19:53;98868.16;;;6.94;91.00
17781;BME280;8498;52.516;13.790;2023-03-14T16:25:16;98902.72;;;6.37;90.69
17781;BME280;8498;52.516;13.790;2023-03-14T16:30:40;98949.31;;;6.25;92.27
17781;BME280;8498;52.516;13.790;2023-03-14T16:36:04;98984.06;;;5.97;92.02
17781;BME280;8498;52.516;13.790;2023-03-14T16:41:30;99014.38;;;5.67;91.50
17781;BME280;8498;52.516;13.790;2023-03-14T16:46:53;99061.13;;;5.16;91.89
17781;BME280;8498;52.516;13.790;2023-03-14T16:52:15;99083.34;;;4.63;92.03
17781;BME280;8498;52.516;13.790;2023-03-14T16:57:38;99111.06;;;4.29;91.95
17781;BME280;8498;52.516;13.790;2023-03-14T17:03:01;99139.09;;;4.03;93.83
17781;BME280;8498;52.516;13.790;2023-03-14T17:08:23;99179.22;;;4.05;93.72
17781;BME280;8498;52.516;13.790;2023-03-14T17:13:46;99205.06;;;3.72;95.29
17781;BME280;8498;52.516;13.790;2023-03-14T17:19:08;99240.25;;;3.55;95.10
17781;BME280;8498;52.516;13.790;2023-03-14T17:24:31;99267.50;;;3.81;95.62
17781;BME280;8498;52.516;13.790;2023-03-14T17:29:53;99291.25;;;3.79;95.69
17781;BME280;8498;52.516;13.790;2023-03-14T17:35:16;99324.72;;;3.76;96.05
17781;BME280;8498;52.516;13.790;2023-03-14T17:40:39;99353.78;;;3.87;95.70
17781;BME280;8498;52.516;13.790;2023-03-14T17:46:04;99378.00;;;4.06;95.97
17781;BME280;8498;52.516;13.790;2023-03-14T17:51:30;99376.09;;;4.22;96.35
17781;BME280;8498;52.516;13.790;2023-03-14T17:56:52;99398.38;;;4.02;95.54
17781;BME280;8498;52.516;13.790;2023-03-14T18:02:16;99399.00;;;4.06;95.88
17781;BME280;8498;52.516;13.790;2023-03-14T18:07:39;99424.06;;;4.26;96.80
17781;BME280;8498;52.516;13.790;2023-03-14T18:13:03;99443.03;;;4.17;95.18
17781;BME280;8498;52.516;13.790;2023-03-14T18:18:25;99477.09;;;4.18;96.81
17781;BME280;8498;52.516;13.790;2023-03-14T18:23:48;99495.34;;;4.35;96.62
17781;BME280;8498;52.516;13.790;2023-03-14T18:29:10;99491.19;;;4.31;96.12
17781;BME280;8498;52.516;13.790;2023-03-14T18:34:36;99522.47;;;4.36;96.44
17781;BME280;8498;52.516;13.790;2023-03-14T18:39:58;99518.22;;;4.48;97.58
17781;BME280;8498;52.516;13.790;2023-03-14T18:45:21;99529.50;;;4.50;96.96
17781;BME280;8498;52.516;13.790;2023-03-14T18:50:43;99550.16;;;4.56;97.37
17781;BME280;8498;52.516;13.790;2023-03-14T18:56:06;99566.78;;;4.56;97.60
17781;BME280;8498;52.516;13.790;2023-03-14T19:01:29;99580.97;;;4.68;97.57
17781;BME280;8498;52.516;13.790;2023-03-14T19:06:52;99597.78;;;4.65;97.30
17781;BME280;8498;52.516;13.790;2023-03-14T19:12:15;99623.22;;;4.79;97.61
17781;BME280;8498;52.516;13.790;2023-03-14T19:17:39;99637.16;;;4.67;97.63
17781;BME280;8498;52.516;13.790;2023-03-14T19:23:02;99647.84;;;4.78;98.07
17781;BME280;8498;52.516;13.790;2023-03-14T19:28:27;99652.94;;;4.81;97.72
17781;BME280;8498;52.516;13.790;2023-03-14T19:33:49;99676.44;;;4.84;97.28
17781;BME280;8498;52.516;13.790;2023-03-14T19:39:12;99666.47;;;5.03;96.67
17781;BME280;8498;52.516;13.790;2023-03-14T19:44:34;99692.63;;;5.06;95.18
17781;BME280;8498;52.516;13.790;2023-03-14T19:49:57;99702.94;;;5.09;94.34
17781;BME280;8498;52.516;13.790;2023-03-14T19:55:21;99711.97;;;5.05;92.90
17781;BME280;8498;52.516;13.790;2023-03-14T20:00:47;99734.53;;;5.09;92.24
17781;BME280;8498;52.516;13.790;2023-03-14T20:06:11;99749.97;;;5.15;92.29
17781;BME280;8498;52.516;13.790;2023-03-14T20:11:35;99763.41;;;5.11;91.64
17781;BME280;8498;52.516;13.790;2023-03-14T20:17:01;99782.28;;;5.03;91.69
17781;BME280;8498;52.516;13.790;2023-03-14T20:22:24;99807.09;;;4.99;91.64
17781;BME280;8498;52.516;13.790;2023-03-14T20:27:48;99806.53;;;4.94;89.98
17781;BME280;8498;52.516;13.790;2023-03-14T20:33:13;99812.56;;;4.96;89.21
17781;BME280;8498;52.516;13.790;2023-03-14T20:38:37;99829.84;;;5.00;88.43
17781;BME280;8498;52.516;13.790;2023-03-14T20:44:00;99856.53;;;4.94;87.13
17781;BME280;8498;52.516;13.790;2023-03-14T20:49:23;99859.59;;;4.87;85.05
17781;BME280;8498;52.516;13.790;2023-03-14T20:54:48;99867.31;;;4.90;84.74
17781;BME280;8498;52.516;13.790;2023-03-14T21:00:11;99872.84;;;4.85;83.78
17781;BME280;8498;52.516;13.790;2023-03-14T21:05:43;99889.75;;;4.81;84.27
17781;BME280;8498;52.516;13.790;2023-03-14T21:11:08;99896.13;;;4.77;82.70
17781;BME280;8498;52.516;13.790;2023-03-14T21:16:30;99892.53;;;4.78;82.18
17781;BME280;8498;52.516;13.790;2023-03-14T21:21:53;99894.59;;;4.73;80.54
17781;BME280;8498;52.516;13.790;2023-03-14T21:27:15;99917.00;;;4.64;80.20
17781;BME280;8498;52.516;13.790;2023-03-14T21:32:38;99925.91;;;4.62;78.54
17781;BME280;8498;52.516;13.790;2023-03-14T21:38:01;99939.75;;;4.65;78.96
17781;BME280;8498;52.516;13.790;2023-03-14T21:43:24;99955.84;;;4.59;77.62
17781;BME280;8498;52.516;13.790;2023-03-14T21:48:47;99966.03;;;4.50;77.62
17781;BME280;8498;52.516;13.790;2023-03-14T21:54:09;99975.47;;;4.54;77.15
17781;BME280;8498;52.516;13.790;2023-03-14T21:59:33;99978.53;;;4.46;75.90
17781;BME280;8498;52.516;13.790;2023-03-14T22:04:56;99988.34;;;4.42;75.89
17781;BME280;8498;52.516;13.790;2023-03-14T22:10:19;100001.00;;;4.52;77.20
17781;BME280;8498;52.516;13.790;2023-03-14T22:15:45;100009.38;;;4.42;76.62
17781;BME280;8498;52.516;13.790;2023-03-14T22:21:08;100019.28;;;4.37;77.44
17781;BME280;8498;52.516;13.790;2023-03-14T22:26:30;100022.19;;;4.33;76.53
17781;BME280;8498;52.516;13.790;2023-03-14T22:31:52;100021.13;;;4.20;76.09
17781;BME280;8498;52.516;13.790;2023-03-14T22:37:15;100038.59;;;4.21;76.42
17781;BME280;8498;52.516;13.790;2023-03-14T22:42:37;100043.63;;;4.25;76.26
17781;BME280;8498;52.516;13.790;2023-03-14T22:48:00;100049.19;;;4.19;76.10
17781;BME280;8498;52.516;13.790;2023-03-14T22:53:23;100065.94;;;4.17;76.49
17781;BME280;8498;52.516;13.790;2023-03-14T22:58:45;100076.56;;;4.15;76.42
17781;BME280;8498;52.516;13.790;2023-03-14T23:04:07;100083.50;;;4.16;76.13
17781;BME280;8498;52.516;13.790;2023-03-14T23:09:30;100099.91;;;4.21;76.05
17781;BME280;8498;52.516;13.790;2023-03-14T23:14:52;100103.16;;;4.09;75.79
17781;BME280;8498;52.516;13.790;2023-03-14T23:20:15;100111.28;;;4.04;75.92
17781;BME280;8498;52.516;13.790;2023-03-14T23:25:37;100106.69;;;4.08;75.95
17781;BME280;8498;52.516;13.790;2023-03-14T23:31:14;100119.06;;;4.06;76.67
17781;BME280;8498;52.516;13.790;2023-03-14T23:36:36;100130.50;;;4.05;75.93
17781;BME280;8498;52.516;13.790;2023-03-14T23:41:59;100136.84;;;4.01;76.32
17781;BME280;8498;52.516;13.790;2023-03-14T23:47:21;100140.34;;;4.01;76.24
17781;BME280;8498;52.516;13.790;2023-03-14T23:52:44;100156.09;;;4.01;76.04
17781;BME280;8498;52.516;13.790;2023-03-14T23:58:07;100170.69;;;3.90;76.49
